Draky2 — FAD6392 — position and weather

sailwx.info

Track history (hours):
 
Tides and Currents Weather Stations Pressure Air Temp Water Temp Dewpoint Dewpoint Depression Visibility Wind Speed Wind Dir Waves Ship Positions

Draky2

Last reported at 2018-Jun-23 14:30 UTC. Time now 2018-Jun-23 15:34 UTC.
Position N 43°22' W 001°47'.

Length 11 m.

Type: Pleasure craft. MMSI: 227413690.

Date/timePositionNaut miles runAvg speedWind from/ knotsBaromVisibWave heightAir tempDewpointWater temp
2018-Jun-23 14:30N 43°22' W 001°47'1 2.8
2018-Jun-23 14:00N 43°23' W 001°46'1 1.6
2018-Jun-23 13:30N 43°24' W 001°46'1 1.1
2018-Jun-23 13:00N 43°23' W 001°46'0 0.7
2018-Jun-23 12:27N 43°23' W 001°46'1 1.6
2018-Jun-23 12:00N 43°24' W 001°46'1 1.4
2018-Jun-23 11:30N 43°23' W 001°46'0 0.9
2018-Jun-23 11:00N 43°23' W 001°46'0 0.7
2018-Jun-23 10:29N 43°23' W 001°46'1 0.1
2018-Jun-22 14:58N 43°22' W 001°47'2 4.6
2018-Jun-22 14:30N 43°24' W 001°46'3 6.6
2018-Jun-22 14:00N 43°27' W 001°43'4 6.5
2018-Jun-22 13:26N 43°29' W 001°40'3 6.8
2018-Jun-22 13:00N 43°32' W 001°37'  
2018-Jun-17 15:03N 43°34' W 001°33'0 6.1
2018-Jun-17 15:00N 43°33' W 001°33'3 5.6
2018-Jun-17 14:30N 43°31' W 001°35'2 4.8
2018-Jun-17 14:00N 43°29' W 001°37'3 6.1
2018-Jun-17 13:31N 43°26' W 001°39'3 4.1
2018-Jun-17 12:48N 43°24' W 001°41'0 0.0
2018-Jun-17 12:30N 43°24' W 001°41'0 0.0
2018-Jun-17 12:00N 43°24' W 001°41'0 0.0
2018-Jun-17 11:30N 43°24' W 001°41'2 3.0
2018-Jun-17 11:00N 43°25' W 001°40'3 6.1
2018-Jun-17 10:30N 43°28' W 001°38'2 4.8
2018-Jun-17 10:00N 43°29' W 001°35'2 3.1
2018-Jun-17 09:30N 43°31' W 001°34'  
Track history (hours):
 
Tides and Currents Weather Stations Pressure Air Temp Water Temp Dewpoint Dewpoint Depression Visibility Wind Speed Wind Dir Waves Ship Positions

Draky2

Last reported at 2018-Jun-23 14:30 UTC. Time now 2018-Jun-23 15:34 UTC.
Position N 43°22' W 001°47'.

Length 11 m.

Type: Pleasure craft. MMSI: 227413690.

Date/timePositionNaut miles runAvg speedWind from/ knotsBaromVisibWave heightAir tempDewpointWater temp
2018-Jun-23 14:30N 43°22' W 001°47'1 2.8
2018-Jun-23 14:00N 43°23' W 001°46'1 1.6
2018-Jun-23 13:30N 43°24' W 001°46'1 1.1
2018-Jun-23 13:00N 43°23' W 001°46'0 0.7
2018-Jun-23 12:27N 43°23' W 001°46'1 1.6
2018-Jun-23 12:00N 43°24' W 001°46'1 1.4
2018-Jun-23 11:30N 43°23' W 001°46'0 0.9
2018-Jun-23 11:00N 43°23' W 001°46'0 0.7
2018-Jun-23 10:29N 43°23' W 001°46'1 0.1
2018-Jun-22 14:58N 43°22' W 001°47'2 4.6
2018-Jun-22 14:30N 43°24' W 001°46'3 6.6
2018-Jun-22 14:00N 43°27' W 001°43'4 6.5
2018-Jun-22 13:26N 43°29' W 001°40'3 6.8
2018-Jun-22 13:00N 43°32' W 001°37'  
2018-Jun-17 15:03N 43°34' W 001°33'0 6.1
2018-Jun-17 15:00N 43°33' W 001°33'3 5.6
2018-Jun-17 14:30N 43°31' W 001°35'2 4.8
2018-Jun-17 14:00N 43°29' W 001°37'3 6.1
2018-Jun-17 13:31N 43°26' W 001°39'3 4.1
2018-Jun-17 12:48N 43°24' W 001°41'0 0.0
2018-Jun-17 12:30N 43°24' W 001°41'0 0.0
2018-Jun-17 12:00N 43°24' W 001°41'0 0.0
2018-Jun-17 11:30N 43°24' W 001°41'2 3.0
2018-Jun-17 11:00N 43°25' W 001°40'3 6.1
2018-Jun-17 10:30N 43°28' W 001°38'2 4.8
2018-Jun-17 10:00N 43°29' W 001°35'2 3.1
2018-Jun-17 09:30N 43°31' W 001°34'  

Dump ship's entire track history